Time;durP1;ratioP1;P1;durP2;ratioP2;P2;SDS_P1;SDS_P2;PMS_P1;PMS_P2;Temp;Humidity;BMP_temperature;BMP_pressure;BME280_temperature;BME280_humidity;BME280_pressure;Samples;Min_cycle;Max_cycle;Signal;HPM_P1;HPM_P2
2021/10/26 00:01:18;;;;;;;68.30;36.25;;;11.40;99.90;;;;;;5116783;28;20031;-69
2021/10/26 00:03:44;;;;;;;68.63;35.33;;;11.50;99.90;;;;;;5116038;28;20048;-69
2021/10/26 00:06:10;;;;;;;65.13;34.38;;;11.50;99.90;;;;;;5116392;28;20088;-69
2021/10/26 00:08:35;;;;;;;58.95;32.42;;;11.50;99.90;;;;;;5115918;28;20031;-70
2021/10/26 00:11:02;;;;;;;36.80;22.60;;;11.50;99.90;;;;;;5114798;28;20403;-69
2021/10/26 00:13:28;;;;;;;38.28;22.10;;;11.40;99.90;;;;;;5116447;28;20440;-69
2021/10/26 00:15:53;;;;;;;23.52;14.48;;;11.30;99.90;;;;;;5114671;28;20120;-70
2021/10/26 00:18:19;;;;;;;24.45;15.07;;;11.30;99.90;;;;;;5114484;28;20043;-70
2021/10/26 00:20:45;;;;;;;23.63;15.68;;;11.20;99.90;;;;;;5115481;28;20035;-69
2021/10/26 00:23:11;;;;;;;22.95;13.48;;;11.20;99.90;;;;;;5115841;28;20036;-70
2021/10/26 00:25:36;;;;;;;17.48;11.40;;;11.10;99.90;;;;;;5114648;28;20442;-70
2021/10/26 00:28:03;;;;;;;19.85;11.60;;;11.10;99.90;;;;;;5115895;28;20042;-69
2021/10/26 00:30:29;;;;;;;17.75;10.95;;;11.10;99.90;;;;;;5115271;28;20063;-69
2021/10/26 00:32:54;;;;;;;19.20;10.60;;;11.00;99.90;;;;;;5115683;28;20062;-69
2021/10/26 00:35:20;;;;;;;15.02;9.18;;;11.00;99.90;;;;;;5114290;28;20377;-69
2021/10/26 00:37:46;;;;;;;17.05;9.65;;;10.90;99.90;;;;;;5114218;28;20126;-69
2021/10/26 00:40:13;;;;;;;10.85;8.27;;;10.80;99.90;;;;;;5113867;28;20086;-69
2021/10/26 00:42:39;;;;;;;13.02;9.07;;;10.80;99.90;;;;;;5115291;28;20039;-69
2021/10/26 00:45:06;;;;;;;14.80;9.10;;;10.70;99.90;;;;;;5115665;28;20039;-69
2021/10/26 00:47:31;;;;;;;20.77;11.32;;;10.70;99.90;;;;;;5115420;28;20035;-69
2021/10/26 00:49:57;;;;;;;26.30;15.80;;;10.70;99.90;;;;;;5114936;28;20031;-69
2021/10/26 00:52:23;;;;;;;31.05;19.90;;;10.60;99.90;;;;;;5113911;28;20032;-69
2021/10/26 00:54:49;;;;;;;44.97;26.48;;;10.70;99.90;;;;;;5115317;28;20176;-69
2021/10/26 00:57:19;;;;;;;59.30;31.35;;;10.70;99.90;;;;;;5115153;28;20089;-69
2021/10/26 00:59:44;;;;;;;59.60;32.30;;;10.80;99.90;;;;;;5113344;28;20050;-69
2021/10/26 01:02:10;;;;;;;62.40;34.13;;;10.80;99.90;;;;;;5113569;28;20043;-69
2021/10/26 01:04:36;;;;;;;67.40;37.00;;;10.90;99.90;;;;;;5113605;28;20118;-69
2021/10/26 01:07:01;;;;;;;79.43;37.50;;;10.90;99.90;;;;;;5114973;28;20377;-69
2021/10/26 01:09:27;;;;;;;71.97;37.80;;;11.00;99.90;;;;;;5114709;28;20072;-69
2021/10/26 01:11:53;;;;;;;85.75;42.53;;;11.10;99.90;;;;;;5115270;28;20069;-69
2021/10/26 01:14:20;;;;;;;80.50;39.42;;;11.10;99.90;;;;;;5115002;28;20111;-69
2021/10/26 01:16:45;;;;;;;85.72;40.72;;;11.00;99.90;;;;;;5114696;28;20054;-69
2021/10/26 01:19:11;;;;;;;77.75;37.63;;;11.00;99.90;;;;;;5114170;28;20123;-69
2021/10/26 01:21:36;;;;;;;86.45;41.35;;;11.00;99.90;;;;;;5114972;28;20040;-69
2021/10/26 01:24:02;;;;;;;84.28;41.55;;;11.10;99.90;;;;;;5114580;28;20480;-69
2021/10/26 01:26:28;;;;;;;82.82;41.60;;;11.10;99.90;;;;;;5113261;28;20048;-69
2021/10/26 01:28:54;;;;;;;86.80;43.45;;;11.10;99.90;;;;;;5112835;28;20077;-69
2021/10/26 01:31:19;;;;;;;80.18;41.00;;;11.20;99.90;;;;;;5114780;28;20114;-69
2021/10/26 01:33:45;;;;;;;71.65;37.97;;;11.10;99.90;;;;;;5114357;28;20075;-69
2021/10/26 01:36:11;;;;;;;82.78;40.30;;;11.20;99.90;;;;;;5114204;28;20036;-69
2021/10/26 01:38:37;;;;;;;86.25;41.30;;;11.20;99.90;;;;;;5114520;28;20032;-69
2021/10/26 01:41:03;;;;;;;82.75;39.95;;;11.20;99.90;;;;;;5114823;28;20384;-69
2021/10/26 01:43:29;;;;;;;79.20;41.13;;;11.20;99.90;;;;;;5114218;28;20422;-69
2021/10/26 01:45:54;;;;;;;78.47;38.83;;;11.20;99.90;;;;;;5112941;28;20071;-69
2021/10/26 01:48:21;;;;;;;81.05;41.47;;;11.20;99.90;;;;;;5114104;28;20095;-69
2021/10/26 01:50:47;;;;;;;82.30;40.40;;;11.20;99.90;;;;;;5113904;28;20475;-69
2021/10/26 01:53:13;;;;;;;80.03;40.92;;;11.20;99.90;;;;;;5113061;28;20498;-69
2021/10/26 01:55:39;;;;;;;81.00;40.65;;;11.20;99.90;;;;;;5113889;28;20062;-69
2021/10/26 01:58:04;;;;;;;74.32;39.47;;;11.20;99.90;;;;;;5113879;28;20415;-69
2021/10/26 02:00:31;;;;;;;70.78;38.88;;;11.10;99.90;;;;;;5113900;28;20039;-69
2021/10/26 02:02:56;;;;;;;65.13;36.97;;;11.10;99.90;;;;;;5113699;28;20487;-69
2021/10/26 02:05:22;;;;;;;72.07;36.95;;;11.10;99.90;;;;;;5114166;28;20042;-69
2021/10/26 02:07:47;;;;;;;77.88;39.08;;;11.10;99.90;;;;;;5114184;28;20051;-69
2021/10/26 02:10:15;;;;;;;83.85;40.83;;;11.10;99.90;;;;;;5113660;28;20084;-69
2021/10/26 02:12:41;;;;;;;75.07;37.85;;;11.10;99.90;;;;;;5112514;28;20108;-69
2021/10/26 02:15:07;;;;;;;71.85;39.00;;;11.00;99.90;;;;;;5114158;28;20043;-69
2021/10/26 02:17:33;;;;;;;79.53;40.00;;;11.00;99.90;;;;;;5112769;28;20086;-70
2021/10/26 02:19:59;;;;;;;70.78;36.28;;;11.00;99.90;;;;;;5113897;28;20444;-69
2021/10/26 02:22:25;;;;;;;64.07;35.65;;;11.00;99.90;;;;;;5114021;28;20040;-69
2021/10/26 02:24:50;;;;;;;75.03;38.72;;;11.00;99.90;;;;;;5112278;28;20086;-69
2021/10/26 02:27:16;;;;;;;70.15;38.50;;;11.00;99.90;;;;;;5113661;28;20044;-69
2021/10/26 02:29:42;;;;;;;82.50;40.70;;;11.00;99.90;;;;;;5113627;28;20027;-69
2021/10/26 02:32:08;;;;;;;69.00;38.25;;;11.00;99.90;;;;;;5112240;28;20036;-69
2021/10/26 02:34:34;;;;;;;83.38;41.03;;;11.10;99.90;;;;;;5113851;28;20040;-69
2021/10/26 02:37:00;;;;;;;77.88;39.75;;;11.00;99.90;;;;;;5113747;28;20043;-69
2021/10/26 02:39:25;;;;;;;80.93;41.10;;;11.00;99.90;;;;;;5113334;28;20059;-69
2021/10/26 02:41:51;;;;;;;77.55;40.00;;;11.00;99.90;;;;;;5112216;28;20044;-69
2021/10/26 02:44:17;;;;;;;86.00;38.95;;;11.00;99.90;;;;;;5112143;28;20046;-69
2021/10/26 02:46:43;;;;;;;78.38;38.75;;;11.00;99.90;;;;;;5116128;28;20183;-69
2021/10/26 02:49:09;;;;;;;72.97;37.45;;;11.00;99.90;;;;;;5117335;28;20032;-69
2021/10/26 02:51:35;;;;;;;84.65;39.72;;;11.00;99.90;;;;;;5117060;28;20047;-69
2021/10/26 02:54:01;;;;;;;77.32;38.70;;;11.00;99.90;;;;;;5116831;28;20449;-69
2021/10/26 02:56:27;;;;;;;76.53;38.40;;;11.00;99.90;;;;;;5117650;28;20047;-69
2021/10/26 02:58:52;;;;;;;72.07;38.80;;;11.10;99.90;;;;;;5117322;28;20046;-69
2021/10/26 03:01:19;;;;;;;94.32;41.10;;;11.10;99.90;;;;;;5117985;28;20035;-69
2021/10/26 03:03:44;;;;;;;82.53;40.75;;;11.10;99.90;;;;;;5117280;28;20082;-69
2021/10/26 03:06:10;;;;;;;78.57;40.75;;;11.10;99.90;;;;;;5116143;28;20075;-69
2021/10/26 03:08:36;;;;;;;75.07;38.50;;;11.10;99.90;;;;;;5116826;28;20031;-69
2021/10/26 03:11:01;;;;;;;81.97;40.90;;;11.10;99.90;;;;;;5117225;28;20089;-69
2021/10/26 03:13:27;;;;;;;83.63;40.13;;;11.10;99.90;;;;;;5117340;28;20040;-69
2021/10/26 03:15:52;;;;;;;82.47;41.33;;;11.10;99.90;;;;;;5117080;28;20407;-69
2021/10/26 03:18:18;;;;;;;76.30;38.58;;;11.10;99.90;;;;;;5115820;28;20043;-69
2021/10/26 03:20:44;;;;;;;83.40;40.53;;;11.00;99.90;;;;;;5115535;28;20039;-68
2021/10/26 03:23:10;;;;;;;75.68;38.90;;;11.00;99.90;;;;;;5116920;28;20126;-69
2021/10/26 03:25:36;;;;;;;84.75;41.55;;;10.90;99.90;;;;;;5117154;28;20032;-69
2021/10/26 03:28:01;;;;;;;78.05;39.53;;;10.90;99.90;;;;;;5117151;28;20507;-69
2021/10/26 03:30:27;;;;;;;76.32;40.15;;;10.90;99.90;;;;;;5115306;28;20085;-69
2021/10/26 03:32:52;;;;;;;73.10;38.20;;;10.80;99.90;;;;;;5116734;28;20406;-69
2021/10/26 03:35:18;;;;;;;69.95;35.78;;;10.80;99.90;;;;;;5117266;28;20435;-69
2021/10/26 03:37:45;;;;;;;72.75;37.50;;;10.80;99.90;;;;;;5116803;28;20039;-69
2021/10/26 03:40:12;;;;;;;76.93;37.90;;;10.80;99.90;;;;;;5116487;28;20114;-69
2021/10/26 03:42:38;;;;;;;67.57;37.28;;;10.70;99.90;;;;;;5115545;28;20060;-69
2021/10/26 03:45:05;;;;;;;65.93;35.20;;;10.70;99.90;;;;;;5116784;28;20035;-69
2021/10/26 03:47:31;;;;;;;69.90;35.58;;;10.70;99.90;;;;;;5115732;28;20628;-69
2021/10/26 03:49:57;;;;;;;66.40;34.75;;;10.70;99.90;;;;;;5116176;28;20135;-70
2021/10/26 03:52:22;;;;;;;72.40;35.50;;;10.70;99.90;;;;;;5116625;28;20039;-69
2021/10/26 03:54:49;;;;;;;66.90;35.45;;;10.60;99.90;;;;;;5115179;28;20047;-69
2021/10/26 03:57:15;;;;;;;67.70;33.78;;;10.60;99.90;;;;;;5114819;28;20507;-69
2021/10/26 03:59:41;;;;;;;68.80;34.33;;;10.60;99.90;;;;;;5116088;27;20114;-69
2021/10/26 04:02:12;;;;;;;65.95;32.25;;;10.60;99.90;;;;;;5116349;28;20067;-69
2021/10/26 04:04:39;;;;;;;67.50;33.95;;;10.60;99.90;;;;;;5115249;28;20058;-69
2021/10/26 04:07:08;;;;;;;66.20;32.20;;;10.60;99.90;;;;;;5116402;28;20047;-69
2021/10/26 04:09:57;;;;;;;64.25;32.88;;;10.60;99.90;;;;;;5114859;28;20051;-69
2021/10/26 04:12:24;;;;;;;57.67;29.92;;;10.60;99.90;;;;;;5116181;28;20043;-69
2021/10/26 04:14:53;;;;;;;50.78;27.75;;;10.60;99.90;;;;;;5115006;28;20083;-69
2021/10/26 04:17:21;;;;;;;46.72;25.95;;;10.70;99.90;;;;;;5114827;28;20487;-69
2021/10/26 04:19:48;;;;;;;43.10;22.98;;;10.70;99.90;;;;;;5114329;28;20047;-69
2021/10/26 04:22:16;;;;;;;39.75;20.77;;;10.60;99.90;;;;;;5116088;28;20120;-69
2021/10/26 04:24:42;;;;;;;34.72;20.15;;;10.60;99.90;;;;;;5115880;28;20039;-69
2021/10/26 04:27:08;;;;;;;38.45;19.83;;;10.50;99.90;;;;;;5115858;28;20039;-69
2021/10/26 04:29:34;;;;;;;35.78;19.75;;;10.50;99.90;;;;;;5114370;28;20040;-69
2021/10/26 04:32:00;;;;;;;32.30;18.45;;;10.50;99.90;;;;;;5114195;28;20140;-69
2021/10/26 04:34:25;;;;;;;37.63;19.05;;;10.50;99.90;;;;;;5114637;28;20070;-69
2021/10/26 04:36:51;;;;;;;37.67;20.27;;;10.40;99.90;;;;;;5115929;28;20043;-69
2021/10/26 04:39:16;;;;;;;32.58;19.73;;;10.40;99.90;;;;;;5115219;28;20039;-69
2021/10/26 04:41:42;;;;;;;34.63;20.45;;;10.40;99.90;;;;;;5115600;28;20100;-69
2021/10/26 04:44:08;;;;;;;42.13;21.63;;;10.30;99.90;;;;;;5115795;27;20391;-69
2021/10/26 04:46:33;;;;;;;40.40;21.20;;;10.30;99.90;;;;;;5114136;28;20047;-69
2021/10/26 04:49:00;;;;;;;40.10;22.33;;;10.30;99.90;;;;;;5115126;27;20106;-70
2021/10/26 04:51:26;;;;;;;35.63;20.95;;;10.20;99.90;;;;;;5114665;28;20478;-69
2021/10/26 04:53:54;;;;;;;38.20;20.30;;;10.20;99.90;;;;;;5115372;28;20082;-69
2021/10/26 04:56:19;;;;;;;33.90;19.95;;;10.20;99.90;;;;;;5115486;28;20040;-69
2021/10/26 04:58:45;;;;;;;36.97;21.73;;;10.10;99.90;;;;;;5113717;28;20046;-69
2021/10/26 05:01:10;;;;;;;32.28;20.13;;;10.10;99.90;;;;;;5115438;28;20164;-69
2021/10/26 05:03:36;;;;;;;37.22;20.38;;;10.10;99.90;;;;;;5113769;28;20063;-69
2021/10/26 05:06:03;;;;;;;35.72;20.58;;;10.10;99.90;;;;;;5114917;28;20507;-69
2021/10/26 05:08:30;;;;;;;38.20;21.13;;;10.10;99.90;;;;;;5113675;28;20071;-70
2021/10/26 05:10:55;;;;;;;35.05;22.45;;;10.00;99.90;;;;;;5113228;28;20071;-69
2021/10/26 05:13:21;;;;;;;41.03;21.70;;;10.00;99.90;;;;;;5114854;28;20120;-69
2021/10/26 05:15:47;;;;;;;49.20;24.40;;;10.00;99.90;;;;;;5114811;28;20047;-69
2021/10/26 05:18:14;;;;;;;45.10;23.25;;;10.00;99.90;;;;;;5113721;28;20058;-69
2021/10/26 05:20:40;;;;;;;43.30;24.00;;;10.00;99.90;;;;;;5114763;28;20069;-69
2021/10/26 05:23:07;;;;;;;48.90;25.00;;;10.00;99.90;;;;;;5112901;28;20048;-69
2021/10/26 05:25:33;;;;;;;52.58;26.88;;;10.00;99.90;;;;;;5115078;28;20045;-69
2021/10/26 05:27:59;;;;;;;60.50;29.73;;;10.10;99.90;;;;;;5114793;28;20036;-69
2021/10/26 05:30:25;;;;;;;67.50;31.55;;;10.20;99.90;;;;;;5114213;28;20065;-69
2021/10/26 05:32:51;;;;;;;64.55;32.17;;;10.20;99.90;;;;;;5114367;28;20053;-69
2021/10/26 05:35:16;;;;;;;71.53;34.45;;;10.30;99.90;;;;;;5114435;28;20034;-69
2021/10/26 05:37:42;;;;;;;76.15;34.95;;;10.40;99.90;;;;;;5112963;28;20491;-69
2021/10/26 05:40:09;;;;;;;77.90;36.08;;;10.40;99.90;;;;;;5114346;28;20046;-69
2021/10/26 05:42:35;;;;;;;84.93;36.47;;;10.40;99.90;;;;;;5114271;28;20042;-69
2021/10/26 05:45:02;;;;;;;83.18;37.47;;;10.40;99.90;;;;;;5114234;28;20035;-69
2021/10/26 05:47:27;;;;;;;81.28;36.75;;;10.40;99.90;;;;;;5114504;28;20047;-69
2021/10/26 05:49:53;;;;;;;84.28;37.33;;;10.40;99.90;;;;;;5112914;28;20035;-69
2021/10/26 05:52:19;;;;;;;83.30;37.60;;;10.50;99.90;;;;;;5114345;28;20113;-69
2021/10/26 05:54:44;;;;;;;84.57;36.63;;;10.50;99.90;;;;;;5114113;28;20104;-69
2021/10/26 05:57:10;;;;;;;79.97;37.50;;;10.50;99.90;;;;;;5113222;28;20100;-69
2021/10/26 05:59:36;;;;;;;83.50;35.63;;;10.50;99.90;;;;;;5113800;28;20122;-69
2021/10/26 06:02:01;;;;;;;77.18;35.83;;;10.50;99.90;;;;;;5113975;28;20031;-69
2021/10/26 06:04:27;;;;;;;80.47;36.55;;;10.50;99.90;;;;;;5114328;28;20086;-69
2021/10/26 06:06:52;;;;;;;83.85;37.15;;;10.50;99.90;;;;;;5114057;28;20043;-69
2021/10/26 06:09:19;;;;;;;88.65;37.17;;;10.60;99.90;;;;;;5113760;28;20039;-69
2021/10/26 06:11:47;;;;;;;85.47;37.72;;;10.60;99.90;;;;;;5113318;28;20048;-69
2021/10/26 06:14:13;;;;;;;87.13;35.88;;;10.70;99.90;;;;;;5114224;28;20036;-70
2021/10/26 06:16:41;;;;;;;84.15;38.00;;;10.60;99.90;;;;;;5114257;28;20482;-69
2021/10/26 06:19:07;;;;;;;87.28;37.97;;;10.60;99.90;;;;;;5113339;28;20039;-69
2021/10/26 06:21:33;;;;;;;84.35;37.20;;;10.60;99.90;;;;;;5113710;28;20050;-69
2021/10/26 06:24:00;;;;;;;85.47;38.00;;;10.70;99.90;;;;;;5112920;28;20119;-69
2021/10/26 06:26:26;;;;;;;82.47;35.00;;;10.70;99.90;;;;;;5113606;28;20027;-68
2021/10/26 06:28:52;;;;;;;77.78;34.80;;;10.60;99.90;;;;;;5114001;28;20071;-69
2021/10/26 06:31:18;;;;;;;78.97;36.20;;;10.60;99.90;;;;;;5113822;28;20120;-69
2021/10/26 06:33:44;;;;;;;85.75;36.45;;;10.60;99.90;;;;;;5113991;28;20097;-68
2021/10/26 06:36:10;;;;;;;80.22;33.53;;;10.60;99.90;;;;;;5113701;28;20036;-68
2021/10/26 06:38:36;;;;;;;83.20;34.95;;;10.60;99.90;;;;;;5113227;28;20032;-69
2021/10/26 06:41:04;;;;;;;80.25;33.80;;;10.60;99.90;;;;;;5113498;28;20110;-69
2021/10/26 06:43:30;;;;;;;84.13;35.03;;;10.60;99.90;;;;;;5113408;28;20537;-68
2021/10/26 06:45:56;;;;;;;89.88;36.05;;;10.70;99.90;;;;;;5113877;28;20063;-69
2021/10/26 06:48:22;;;;;;;80.70;36.28;;;10.60;99.90;;;;;;5113591;28;20094;-69
2021/10/26 06:50:48;;;;;;;81.65;35.40;;;10.70;99.90;;;;;;5113340;28;20032;-69
2021/10/26 06:53:14;;;;;;;82.03;34.97;;;10.70;99.90;;;;;;5113386;28;20039;-69
2021/10/26 06:55:40;;;;;;;76.47;34.03;;;10.70;99.90;;;;;;5113370;28;20482;-69
2021/10/26 06:58:05;;;;;;;79.57;33.05;;;10.70;99.90;;;;;;5113611;28;20039;-69
2021/10/26 07:00:31;;;;;;;80.53;33.35;;;10.70;99.90;;;;;;5112025;28;20039;-69
2021/10/26 07:02:57;;;;;;;73.05;33.90;;;10.70;99.90;;;;;;5113200;28;20107;-68
2021/10/26 07:05:25;;;;;;;79.05;32.42;;;10.80;99.90;;;;;;5113423;28;20434;-69
2021/10/26 07:07:51;;;;;;;80.10;32.90;;;10.80;99.90;;;;;;5113357;28;20042;-69
2021/10/26 07:10:18;;;;;;;84.50;33.38;;;10.80;99.90;;;;;;5112812;28;20031;-69
2021/10/26 07:12:45;;;;;;;74.30;32.38;;;10.80;99.90;;;;;;5113127;28;20387;-68
2021/10/26 07:15:13;;;;;;;71.80;31.63;;;10.80;99.90;;;;;;5113222;28;20507;-68
2021/10/26 07:17:40;;;;;;;73.82;31.67;;;10.80;99.90;;;;;;5113238;28;20035;-68
2021/10/26 07:20:08;;;;;;;76.60;31.58;;;10.80;99.90;;;;;;5113040;28;20038;-69
2021/10/26 07:22:35;;;;;;;69.95;30.50;;;10.80;99.90;;;;;;5111889;28;20040;-68
2021/10/26 07:25:07;;;;;;;59.03;26.75;;;10.80;99.90;;;;;;5112419;28;20102;-67
2021/10/26 07:27:34;;;;;;;172.00;40.33;;;10.90;99.90;;;;;;5113413;28;20042;-68
2021/10/26 07:30:00;;;;;;;73.45;30.50;;;10.90;99.90;;;;;;5112946;28;20448;-67
2021/10/26 07:32:26;;;;;;;80.60;30.38;;;11.00;99.90;;;;;;5113295;28;20036;-69
2021/10/26 07:34:52;;;;;;;71.80;32.58;;;11.10;99.90;;;;;;5116943;28;20035;-68
2021/10/26 07:37:23;;;;;;;79.88;31.02;;;11.20;99.90;;;;;;5116743;28;20040;-68
2021/10/26 07:39:51;;;;;;;78.15;32.25;;;11.20;99.90;;;;;;5116514;28;20043;-69
2021/10/26 07:42:18;;;;;;;73.97;31.60;;;11.20;99.90;;;;;;5116801;28;20039;-68
2021/10/26 07:44:51;;;;;;;71.35;31.20;;;11.20;99.90;;;;;;5116688;28;20588;-69
2021/10/26 07:47:19;;;;;;;75.38;32.17;;;11.30;99.90;;;;;;5116753;28;20036;-69
2021/10/26 07:49:47;;;;;;;67.07;31.58;;;11.30;99.90;;;;;;5116253;27;20479;-69
2021/10/26 07:52:15;;;;;;;75.90;33.78;;;11.30;99.90;;;;;;5116415;28;20062;-69
2021/10/26 07:54:49;;;;;;;70.30;33.50;;;11.40;99.90;;;;;;5116770;28;20044;-68
2021/10/26 07:57:16;;;;;;;78.50;33.58;;;11.40;99.90;;;;;;5115404;28;20042;-69
2021/10/26 07:59:43;;;;;;;74.68;31.15;;;11.50;99.90;;;;;;5116164;28;20050;-69
2021/10/26 08:02:16;;;;;;;67.13;31.23;;;11.60;99.90;;;;;;5098002;28;20050;-68
2021/10/26 08:04:45;;;;;;;;;;;11.60;99.90;;;;;;5115513;28;20383;-68
2021/10/26 08:07:11;;;;;;;58.33;29.42;;;11.50;99.90;;;;;;5116274;28;19926;-69
2021/10/26 08:09:37;;;;;;;68.63;30.88;;;11.60;99.90;;;;;;5115918;28;20071;-69
2021/10/26 08:12:04;;;;;;;66.07;31.10;;;11.60;99.90;;;;;;5115877;28;20038;-69
2021/10/26 08:14:29;;;;;;;65.72;31.10;;;11.70;99.90;;;;;;5115815;28;20047;-69
2021/10/26 08:16:55;;;;;;;65.53;31.15;;;11.70;99.90;;;;;;5115793;28;20040;-69
2021/10/26 08:19:21;;;;;;;64.60;31.65;;;11.80;99.90;;;;;;5115461;28;20051;-69
2021/10/26 08:21:48;;;;;;;55.58;30.17;;;12.00;99.90;;;;;;5116187;28;20039;-69
2021/10/26 08:24:14;;;;;;;53.65;27.90;;;12.00;99.90;;;;;;5114491;28;20506;-69
2021/10/26 08:26:45;;;;;;;57.45;27.67;;;12.10;99.90;;;;;;5115810;27;20035;-69
2021/10/26 08:29:30;;;;;;;48.15;26.83;;;12.20;99.90;;;;;;5115637;27;20040;-68
2021/10/26 08:34:51;;;;;;;44.20;24.35;;;12.20;99.90;;;;;;5114398;28;20096;-69
2021/10/26 08:37:17;;;;;;;49.13;24.83;;;12.40;99.90;;;;;;5115745;28;20055;-69
2021/10/26 08:39:44;;;;;;;44.15;24.70;;;12.40;99.90;;;;;;5115167;28;20084;-69
2021/10/26 08:42:13;;;;;;;45.17;23.45;;;12.50;99.90;;;;;;5114880;28;20140;-69
2021/10/26 08:44:40;;;;;;;42.60;22.05;;;12.60;99.90;;;;;;5115518;28;20051;-69
2021/10/26 08:47:09;;;;;;;41.05;21.05;;;12.60;99.90;;;;;;5115394;28;20526;-69
2021/10/26 08:49:34;;;;;;;41.28;23.13;;;12.60;99.90;;;;;;5113659;28;20035;-69
2021/10/26 08:52:04;;;;;;;38.67;23.08;;;12.60;99.90;;;;;;5115297;28;20062;-69
2021/10/26 08:54:31;;;;;;;40.80;23.70;;;12.60;99.90;;;;;;5115568;28;20256;-69
2021/10/26 08:56:57;;;;;;;42.28;22.05;;;12.60;99.90;;;;;;5115356;28;20358;-69
2021/10/26 08:59:23;;;;;;;43.95;23.80;;;12.60;99.90;;;;;;5114957;28;20054;-69
2021/10/26 09:01:50;;;;;;;39.67;22.88;;;12.60;99.90;;;;;;5115139;27;20039;-69
2021/10/26 09:04:19;;;;;;;36.92;21.88;;;12.60;99.90;;;;;;5114941;28;20047;-69
2021/10/26 09:06:53;;;;;;;36.25;21.55;;;12.60;99.90;;;;;;5114975;28;20039;-69
2021/10/26 09:09:19;;;;;;;37.70;21.45;;;12.70;99.90;;;;;;5114974;28;20129;-68
2021/10/26 09:16:40;;;;;;;35.60;20.60;;;12.70;99.90;;;;;;5100081;28;20119;-68
2021/10/26 09:17:22;;;;;;;43.90;21.20;;;12.80;99.90;;;;;;5092900;28;20048;-69
2021/10/26 09:19:47;;;;;;;37.92;20.25;;;12.80;99.90;;;;;;5094350;28;20361;-69
2021/10/26 09:22:15;;;;;;;38.40;20.25;;;12.90;99.90;;;;;;5094270;28;20097;-69
2021/10/26 09:25:13;;;;;;;37.72;18.88;;;12.80;99.90;;;;;;5094739;28;20136;-69
2021/10/26 09:27:39;;;;;;;34.30;18.45;;;12.90;99.90;;;;;;5103298;28;20369;-69
2021/10/26 09:30:10;;;;;;;35.28;18.50;;;12.90;99.90;;;;;;5094275;28;20035;-69
2021/10/26 09:32:47;;;;;;;33.78;19.15;;;12.90;99.90;;;;;;5094075;28;20442;-69
2021/10/26 09:35:18;;;;;;;37.00;17.00;;;12.90;99.90;;;;;;5093070;28;20055;-69
2021/10/26 09:37:52;;;;;;;33.22;16.75;;;13.00;99.90;;;;;;5093820;28;20048;-69
2021/10/26 09:40:18;;;;;;;31.75;16.15;;;13.00;99.90;;;;;;5093364;28;20392;-69
2021/10/26 09:42:49;;;;;;;28.52;16.27;;;12.90;99.90;;;;;;5093717;28;20044;-72
2021/10/26 09:45:24;;;;;;;31.40;16.83;;;12.90;99.90;;;;;;5092174;28;20517;-69
2021/10/26 09:47:52;;;;;;;31.95;14.85;;;12.90;99.90;;;;;;5092115;28;20048;-69
2021/10/26 09:50:18;;;;;;;27.88;15.27;;;12.90;99.90;;;;;;5093570;28;20545;-69
2021/10/26 09:52:47;;;;;;;29.33;15.95;;;13.00;99.90;;;;;;5093433;28;20032;-70
2021/10/26 09:55:21;;;;;;;28.48;15.98;;;13.00;99.90;;;;;;5092928;28;20118;-70
2021/10/26 09:57:48;;;;;;;29.50;16.08;;;13.00;99.90;;;;;;5093568;28;20032;-70
2021/10/26 10:00:26;;;;;;;27.73;15.43;;;13.00;99.90;;;;;;5093389;28;20357;-70
2021/10/26 10:03:13;;;;;;;31.23;15.55;;;13.00;99.90;;;;;;5093800;28;20086;-70
2021/10/26 10:05:43;;;;;;;28.48;15.60;;;13.10;99.90;;;;;;5093811;28;20131;-70
2021/10/26 10:08:28;;;;;;;29.15;15.43;;;13.20;99.90;;;;;;5093975;28;20455;-70
2021/10/26 10:11:19;;;;;;;27.92;14.07;;;13.30;99.90;;;;;;5093629;28;20036;-70
2021/10/26 10:13:48;;;;;;;33.17;14.55;;;13.30;99.90;;;;;;5093765;28;20039;-70
2021/10/26 10:16:18;;;;;;;23.98;13.48;;;13.40;99.90;;;;;;5093733;28;20046;-69
2021/10/26 10:18:45;;;;;;;30.05;14.52;;;13.40;99.90;;;;;;5092960;28;20044;-70
2021/10/26 10:21:14;;;;;;;28.08;15.60;;;13.40;99.90;;;;;;5093918;28;20076;-70
2021/10/26 10:23:44;;;;;;;27.17;14.07;;;13.50;99.90;;;;;;5092092;28;20050;-70
2021/10/26 10:26:13;;;;;;;27.85;12.38;;;13.50;99.90;;;;;;5092466;28;20063;-70
2021/10/26 10:28:45;;;;;;;22.67;12.85;;;13.60;99.90;;;;;;5093122;28;20075;-70
2021/10/26 10:31:14;;;;;;;29.25;13.10;;;13.60;99.90;;;;;;5093830;28;20071;-69
2021/10/26 10:33:42;;;;;;;22.17;12.18;;;13.60;99.90;;;;;;5093130;28;20085;-69
2021/10/26 10:36:09;;;;;;;22.05;12.10;;;13.50;99.90;;;;;;5093745;28;20036;-69
2021/10/26 10:38:35;;;;;;;26.40;14.00;;;13.50;99.90;;;;;;5093059;28;20480;-70
2021/10/26 10:41:21;;;;;;;26.98;13.77;;;13.50;99.90;;;;;;5093321;28;20085;-69
2021/10/26 10:43:47;;;;;;;28.70;12.48;;;13.40;99.90;;;;;;5093120;28;20565;-69
2021/10/26 10:46:40;;;;;;;27.38;14.88;;;13.40;99.90;;;;;;5093697;28;20036;-69
2021/10/26 10:49:18;;;;;;;;;;;13.30;99.90;;;;;;5093451;28;20043;-69
2021/10/26 10:52:00;;;;;;;26.77;12.95;;;13.20;99.90;;;;;;5093384;28;19916;-69
2021/10/26 10:54:54;;;;;;;33.50;14.98;;;13.20;99.90;;;;;;5093398;28;20511;-69
2021/10/26 10:57:24;;;;;;;;;;;13.20;99.90;;;;;;5093429;28;20040;-70
2021/10/26 10:59:57;;;;;;;30.27;13.98;;;13.10;99.90;;;;;;5093107;28;19915;-70
2021/10/26 11:02:25;;;;;;;28.27;15.40;;;13.10;99.90;;;;;;5092911;28;20036;-69
2021/10/26 11:04:54;;;;;;;30.40;15.63;;;13.10;99.90;;;;;;5093336;28;20055;-69
2021/10/26 11:07:41;;;;;;;25.48;15.30;;;13.10;99.90;;;;;;5093268;28;20051;-69
2021/10/26 11:10:08;;;;;;;26.85;13.98;;;13.20;99.90;;;;;;5095361;28;20040;-69
2021/10/26 11:12:36;;;;;;;28.35;15.57;;;13.20;99.90;;;;;;5097131;28;20036;-69
2021/10/26 11:15:08;;;;;;;31.55;14.98;;;13.20;99.90;;;;;;5097203;28;20115;-69
2021/10/26 11:17:38;;;;;;;29.13;14.73;;;13.20;99.90;;;;;;5095645;28;20040;-69
2021/10/26 11:20:26;;;;;;;25.20;13.25;;;13.30;99.90;;;;;;5096622;28;20044;-69
2021/10/26 11:22:53;;;;;;;21.80;13.38;;;13.40;99.90;;;;;;5096676;28;20040;-69
2021/10/26 11:25:34;;;;;;;26.15;12.85;;;13.40;99.90;;;;;;5096709;28;20484;-69
2021/10/26 11:28:02;;;;;;;25.58;13.10;;;13.50;99.90;;;;;;5095496;28;20044;-69
2021/10/26 11:30:28;;;;;;;25.55;12.70;;;13.50;99.90;;;;;;5096225;28;20036;-69
2021/10/26 11:33:12;;;;;;;20.20;10.65;;;13.50;99.90;;;;;;5096358;28;20127;-69
2021/10/26 11:35:49;;;;;;;20.15;10.30;;;13.60;99.90;;;;;;5096681;28;20118;-69
2021/10/26 11:38:22;;;;;;;22.58;10.20;;;13.60;99.90;;;;;;5095110;28;20044;-69
2021/10/26 11:41:04;;;;;;;17.95;9.25;;;13.70;99.90;;;;;;5096123;28;20036;-69
2021/10/26 11:43:50;;;;;;;14.38;8.50;;;13.70;99.90;;;;;;5096430;28;20051;-69
2021/10/26 11:46:20;;;;;;;17.10;9.32;;;13.60;99.90;;;;;;5096368;28;20032;-69
2021/10/26 11:48:56;;;;;;;16.00;8.45;;;13.60;99.90;;;;;;5095897;28;20032;-70
2021/10/26 11:51:24;;;;;;;16.40;7.65;;;13.70;99.90;;;;;;5096009;28;20036;-70
2021/10/26 11:54:01;;;;;;;19.10;7.22;;;13.80;99.90;;;;;;5096335;28;20050;-70
2021/10/26 11:56:51;;;;;;;13.15;7.40;;;13.70;99.90;;;;;;5095167;28;20059;-69
2021/10/26 11:59:19;;;;;;;17.88;7.28;;;13.70;99.90;;;;;;5081343;28;20047;-68
2021/10/26 12:01:54;;;;;;;19.40;8.77;;;13.60;99.90;;;;;;5095146;28;20458;-68
2021/10/26 12:04:41;;;;;;;18.67;8.63;;;13.60;99.90;;;;;;5094975;28;20500;-68
2021/10/26 12:07:14;;;;;;;15.65;8.32;;;13.60;99.90;;;;;;5095786;28;20126;-68
2021/10/26 12:09:41;;;;;;;20.80;9.13;;;13.70;99.90;;;;;;5095037;28;20044;-68
2021/10/26 12:12:13;;;;;;;20.00;8.70;;;13.60;99.90;;;;;;5094403;28;20047;-68
2021/10/26 12:14:40;;;;;;;19.83;10.40;;;13.60;99.90;;;;;;5094206;28;20051;-69
2021/10/26 12:17:07;;;;;;;18.80;8.20;;;13.50;99.90;;;;;;5095981;28;20040;-69
2021/10/26 12:20:19;;;;;;;16.38;8.13;;;13.40;99.90;;;;;;5093289;28;20079;-69
2021/10/26 12:22:49;;;;;;;22.80;8.80;;;13.50;99.90;;;;;;5011025;28;20053;-69
2021/10/26 12:25:21;;;;;;;19.98;8.07;;;13.40;99.90;;;;;;5086646;28;20051;-68
2021/10/26 12:27:52;;;;;;;16.48;8.18;;;13.40;99.90;;;;;;5094384;28;20403;-69
2021/10/26 12:30:41;;;;;;;19.95;9.25;;;13.40;99.90;;;;;;5095249;28;20119;-69
2021/10/26 12:33:28;;;;;;;19.02;9.10;;;13.30;99.90;;;;;;5095114;28;20504;-69
2021/10/26 12:35:55;;;;;;;17.27;8.48;;;13.30;99.90;;;;;;5094055;28;20044;-69
2021/10/26 12:38:35;;;;;;;19.00;9.82;;;13.30;99.90;;;;;;5093881;28;20527;-69
2021/10/26 12:41:12;;;;;;;23.60;10.68;;;13.50;99.90;;;;;;5095261;28;20051;-69